sensor_id;sensor_type;location;lat;lon;timestamp;P1;durP1;ratioP1;P2;durP2;ratioP2
50585;SDS011;36542;51.700;8.846;2024-03-08T00:01:15;40.33;;;24.50;;
50585;SDS011;36542;51.700;8.846;2024-03-08T00:03:41;39.10;;;24.07;;
50585;SDS011;36542;51.700;8.846;2024-03-08T00:06:07;39.17;;;24.83;;
50585;SDS011;36542;51.700;8.846;2024-03-08T00:08:33;42.23;;;24.17;;
50585;SDS011;36542;51.700;8.846;2024-03-08T00:10:58;41.40;;;23.70;;
50585;SDS011;36542;51.700;8.846;2024-03-08T00:13:24;43.40;;;25.13;;
50585;SDS011;36542;51.700;8.846;2024-03-08T00:15:50;40.20;;;24.07;;
50585;SDS011;36542;51.700;8.846;2024-03-08T00:18:16;45.07;;;24.83;;
50585;SDS011;36542;51.700;8.846;2024-03-08T00:20:42;38.97;;;24.37;;
50585;SDS011;36542;51.700;8.846;2024-03-08T00:23:09;43.27;;;25.10;;
50585;SDS011;36542;51.700;8.846;2024-03-08T00:25:36;42.23;;;26.07;;
50585;SDS011;36542;51.700;8.846;2024-03-08T00:28:02;45.03;;;24.67;;
50585;SDS011;36542;51.700;8.846;2024-03-08T00:30:30;39.33;;;24.10;;
50585;SDS011;36542;51.700;8.846;2024-03-08T00:32:56;45.87;;;25.70;;
50585;SDS011;36542;51.700;8.846;2024-03-08T00:35:21;39.60;;;24.23;;
50585;SDS011;36542;51.700;8.846;2024-03-08T00:37:47;39.23;;;25.23;;
50585;SDS011;36542;51.700;8.846;2024-03-08T00:40:13;38.67;;;22.67;;
50585;SDS011;36542;51.700;8.846;2024-03-08T00:42:39;37.33;;;24.07;;
50585;SDS011;36542;51.700;8.846;2024-03-08T00:45:06;44.83;;;25.33;;
50585;SDS011;36542;51.700;8.846;2024-03-08T00:47:32;41.93;;;22.73;;
50585;SDS011;36542;51.700;8.846;2024-03-08T00:49:58;42.33;;;22.13;;
50585;SDS011;36542;51.700;8.846;2024-03-08T00:52:24;42.30;;;23.90;;
50585;SDS011;36542;51.700;8.846;2024-03-08T00:54:49;38.63;;;22.93;;
50585;SDS011;36542;51.700;8.846;2024-03-08T00:57:15;38.30;;;23.37;;
50585;SDS011;36542;51.700;8.846;2024-03-08T00:59:41;38.47;;;24.50;;
50585;SDS011;36542;51.700;8.846;2024-03-08T01:02:06;39.17;;;24.50;;
50585;SDS011;36542;51.700;8.846;2024-03-08T01:04:34;40.30;;;23.07;;
50585;SDS011;36542;51.700;8.846;2024-03-08T01:07:00;44.97;;;24.13;;
50585;SDS011;36542;51.700;8.846;2024-03-08T01:09:26;40.33;;;24.00;;
50585;SDS011;36542;51.700;8.846;2024-03-08T01:11:52;43.57;;;24.57;;
50585;SDS011;36542;51.700;8.846;2024-03-08T01:14:21;42.27;;;23.90;;
50585;SDS011;36542;51.700;8.846;2024-03-08T01:16:48;44.53;;;25.27;;
50585;SDS011;36542;51.700;8.846;2024-03-08T01:19:14;44.37;;;23.07;;
50585;SDS011;36542;51.700;8.846;2024-03-08T01:21:40;47.40;;;25.30;;
50585;SDS011;36542;51.700;8.846;2024-03-08T01:24:06;42.90;;;24.63;;
50585;SDS011;36542;51.700;8.846;2024-03-08T01:26:32;34.13;;;19.50;;
50585;SDS011;36542;51.700;8.846;2024-03-08T01:28:59;40.67;;;24.30;;
50585;SDS011;36542;51.700;8.846;2024-03-08T01:31:25;41.07;;;23.63;;
50585;SDS011;36542;51.700;8.846;2024-03-08T01:33:51;44.57;;;24.93;;
50585;SDS011;36542;51.700;8.846;2024-03-08T01:36:16;43.37;;;23.97;;
50585;SDS011;36542;51.700;8.846;2024-03-08T01:38:44;43.30;;;24.43;;
50585;SDS011;36542;51.700;8.846;2024-03-08T01:41:10;39.60;;;23.90;;
50585;SDS011;36542;51.700;8.846;2024-03-08T01:43:37;42.30;;;25.63;;
50585;SDS011;36542;51.700;8.846;2024-03-08T01:46:03;45.87;;;25.53;;
50585;SDS011;36542;51.700;8.846;2024-03-08T01:48:30;45.20;;;26.53;;
50585;SDS011;36542;51.700;8.846;2024-03-08T01:50:57;41.87;;;23.77;;
50585;SDS011;36542;51.700;8.846;2024-03-08T01:53:26;42.47;;;23.57;;
50585;SDS011;36542;51.700;8.846;2024-03-08T01:55:54;40.83;;;24.77;;
50585;SDS011;36542;51.700;8.846;2024-03-08T01:58:22;41.07;;;22.50;;
50585;SDS011;36542;51.700;8.846;2024-03-08T02:00:48;43.80;;;25.17;;
50585;SDS011;36542;51.700;8.846;2024-03-08T02:03:17;44.63;;;24.87;;
50585;SDS011;36542;51.700;8.846;2024-03-08T02:05:43;42.13;;;26.87;;
50585;SDS011;36542;51.700;8.846;2024-03-08T02:08:09;45.70;;;25.63;;
50585;SDS011;36542;51.700;8.846;2024-03-08T02:10:43;44.57;;;26.70;;
50585;SDS011;36542;51.700;8.846;2024-03-08T02:13:10;45.67;;;26.10;;
50585;SDS011;36542;51.700;8.846;2024-03-08T02:16:09;41.00;;;22.60;;
50585;SDS011;36542;51.700;8.846;2024-03-08T02:18:30;41.80;;;23.60;;
50585;SDS011;36542;51.700;8.846;2024-03-08T02:20:56;42.27;;;25.80;;
50585;SDS011;36542;51.700;8.846;2024-03-08T02:23:23;42.97;;;23.87;;
50585;SDS011;36542;51.700;8.846;2024-03-08T02:25:52;47.33;;;26.73;;
50585;SDS011;36542;51.700;8.846;2024-03-08T02:28:19;51.30;;;28.97;;
50585;SDS011;36542;51.700;8.846;2024-03-08T02:30:45;45.17;;;26.43;;
50585;SDS011;36542;51.700;8.846;2024-03-08T02:33:13;46.33;;;24.70;;
50585;SDS011;36542;51.700;8.846;2024-03-08T02:35:43;49.23;;;25.80;;
50585;SDS011;36542;51.700;8.846;2024-03-08T02:38:12;46.33;;;25.83;;
50585;SDS011;36542;51.700;8.846;2024-03-08T02:40:41;49.30;;;27.00;;
50585;SDS011;36542;51.700;8.846;2024-03-08T02:43:11;45.67;;;26.67;;
50585;SDS011;36542;51.700;8.846;2024-03-08T02:45:37;47.87;;;27.20;;
50585;SDS011;36542;51.700;8.846;2024-03-08T02:48:04;52.27;;;28.50;;
50585;SDS011;36542;51.700;8.846;2024-03-08T02:50:33;50.53;;;25.43;;
50585;SDS011;36542;51.700;8.846;2024-03-08T02:53:00;51.53;;;27.90;;
50585;SDS011;36542;51.700;8.846;2024-03-08T02:55:26;51.30;;;27.83;;
50585;SDS011;36542;51.700;8.846;2024-03-08T02:57:52;48.30;;;27.43;;
50585;SDS011;36542;51.700;8.846;2024-03-08T03:00:19;47.77;;;27.07;;
50585;SDS011;36542;51.700;8.846;2024-03-08T03:02:48;46.20;;;27.47;;
50585;SDS011;36542;51.700;8.846;2024-03-08T03:05:18;47.70;;;27.43;;
50585;SDS011;36542;51.700;8.846;2024-03-08T03:07:48;53.57;;;29.37;;
50585;SDS011;36542;51.700;8.846;2024-03-08T03:10:13;43.47;;;25.43;;
50585;SDS011;36542;51.700;8.846;2024-03-08T03:12:44;49.37;;;28.03;;
50585;SDS011;36542;51.700;8.846;2024-03-08T03:15:11;47.93;;;27.33;;
50585;SDS011;36542;51.700;8.846;2024-03-08T03:17:37;48.57;;;28.03;;
50585;SDS011;36542;51.700;8.846;2024-03-08T03:20:07;53.30;;;30.67;;
50585;SDS011;36542;51.700;8.846;2024-03-08T03:22:38;49.53;;;27.23;;
50585;SDS011;36542;51.700;8.846;2024-03-08T03:25:06;51.27;;;27.97;;
50585;SDS011;36542;51.700;8.846;2024-03-08T03:27:32;50.77;;;27.40;;
50585;SDS011;36542;51.700;8.846;2024-03-08T03:29:58;52.27;;;28.70;;
50585;SDS011;36542;51.700;8.846;2024-03-08T03:32:44;50.80;;;28.57;;
50585;SDS011;36542;51.700;8.846;2024-03-08T03:35:12;49.53;;;28.50;;
50585;SDS011;36542;51.700;8.846;2024-03-08T03:37:38;54.17;;;29.33;;
50585;SDS011;36542;51.700;8.846;2024-03-08T03:40:05;48.60;;;30.20;;
50585;SDS011;36542;51.700;8.846;2024-03-08T03:42:33;54.27;;;30.90;;
50585;SDS011;36542;51.700;8.846;2024-03-08T03:44:59;47.37;;;28.50;;
50585;SDS011;36542;51.700;8.846;2024-03-08T03:47:24;52.43;;;29.40;;
50585;SDS011;36542;51.700;8.846;2024-03-08T03:49:52;53.10;;;28.17;;
50585;SDS011;36542;51.700;8.846;2024-03-08T03:52:19;48.90;;;28.23;;
50585;SDS011;36542;51.700;8.846;2024-03-08T03:54:44;53.90;;;30.47;;
50585;SDS011;36542;51.700;8.846;2024-03-08T03:57:10;49.90;;;29.27;;
50585;SDS011;36542;51.700;8.846;2024-03-08T03:59:37;50.87;;;28.53;;
50585;SDS011;36542;51.700;8.846;2024-03-08T04:02:03;52.70;;;28.47;;
50585;SDS011;36542;51.700;8.846;2024-03-08T04:04:28;50.13;;;26.10;;
50585;SDS011;36542;51.700;8.846;2024-03-08T04:06:54;51.40;;;28.83;;
50585;SDS011;36542;51.700;8.846;2024-03-08T04:09:20;44.77;;;26.77;;
50585;SDS011;36542;51.700;8.846;2024-03-08T04:11:47;54.13;;;28.20;;
50585;SDS011;36542;51.700;8.846;2024-03-08T04:14:13;47.00;;;26.80;;
50585;SDS011;36542;51.700;8.846;2024-03-08T04:16:39;49.37;;;26.40;;
50585;SDS011;36542;51.700;8.846;2024-03-08T04:19:04;48.80;;;27.17;;
50585;SDS011;36542;51.700;8.846;2024-03-08T04:21:30;45.43;;;24.57;;
50585;SDS011;36542;51.700;8.846;2024-03-08T04:23:56;47.30;;;25.33;;
50585;SDS011;36542;51.700;8.846;2024-03-08T04:26:22;48.83;;;28.57;;
50585;SDS011;36542;51.700;8.846;2024-03-08T04:28:47;55.97;;;29.07;;
50585;SDS011;36542;51.700;8.846;2024-03-08T04:31:13;55.80;;;27.67;;
50585;SDS011;36542;51.700;8.846;2024-03-08T04:33:40;54.63;;;27.17;;
50585;SDS011;36542;51.700;8.846;2024-03-08T04:36:06;51.87;;;30.33;;
50585;SDS011;36542;51.700;8.846;2024-03-08T04:38:32;45.90;;;26.70;;
50585;SDS011;36542;51.700;8.846;2024-03-08T04:40:58;52.00;;;27.10;;
50585;SDS011;36542;51.700;8.846;2024-03-08T04:43:27;53.93;;;28.70;;
50585;SDS011;36542;51.700;8.846;2024-03-08T04:45:55;44.67;;;24.83;;
50585;SDS011;36542;51.700;8.846;2024-03-08T04:48:21;49.33;;;27.03;;
50585;SDS011;36542;51.700;8.846;2024-03-08T04:50:46;48.33;;;27.10;;
50585;SDS011;36542;51.700;8.846;2024-03-08T04:53:12;53.67;;;28.17;;
50585;SDS011;36542;51.700;8.846;2024-03-08T04:55:38;49.97;;;26.70;;
50585;SDS011;36542;51.700;8.846;2024-03-08T04:58:04;48.03;;;26.40;;
50585;SDS011;36542;51.700;8.846;2024-03-08T05:00:31;50.70;;;27.57;;
50585;SDS011;36542;51.700;8.846;2024-03-08T05:02:57;50.37;;;27.90;;
50585;SDS011;36542;51.700;8.846;2024-03-08T05:05:23;50.70;;;26.77;;
50585;SDS011;36542;51.700;8.846;2024-03-08T05:07:49;52.27;;;28.03;;
50585;SDS011;36542;51.700;8.846;2024-03-08T05:10:15;49.53;;;28.07;;
50585;SDS011;36542;51.700;8.846;2024-03-08T05:12:42;54.43;;;29.93;;
50585;SDS011;36542;51.700;8.846;2024-03-08T05:15:08;56.53;;;29.80;;
50585;SDS011;36542;51.700;8.846;2024-03-08T05:17:34;49.60;;;27.23;;
50585;SDS011;36542;51.700;8.846;2024-03-08T05:20:00;54.07;;;29.40;;
50585;SDS011;36542;51.700;8.846;2024-03-08T05:22:26;52.30;;;28.40;;
50585;SDS011;36542;51.700;8.846;2024-03-08T05:24:51;48.63;;;28.47;;
50585;SDS011;36542;51.700;8.846;2024-03-08T05:27:17;47.03;;;28.20;;
50585;SDS011;36542;51.700;8.846;2024-03-08T05:29:42;53.53;;;28.73;;
50585;SDS011;36542;51.700;8.846;2024-03-08T05:32:08;52.33;;;28.23;;
50585;SDS011;36542;51.700;8.846;2024-03-08T05:34:35;52.67;;;28.90;;
50585;SDS011;36542;51.700;8.846;2024-03-08T05:37:00;53.10;;;29.17;;
50585;SDS011;36542;51.700;8.846;2024-03-08T05:39:26;54.80;;;29.67;;
50585;SDS011;36542;51.700;8.846;2024-03-08T05:41:52;53.90;;;29.43;;
50585;SDS011;36542;51.700;8.846;2024-03-08T05:44:20;54.17;;;29.10;;
50585;SDS011;36542;51.700;8.846;2024-03-08T05:46:45;58.20;;;30.27;;
50585;SDS011;36542;51.700;8.846;2024-03-08T05:49:11;54.87;;;28.33;;
50585;SDS011;36542;51.700;8.846;2024-03-08T05:51:38;55.87;;;29.37;;
50585;SDS011;36542;51.700;8.846;2024-03-08T05:54:05;53.80;;;30.67;;
50585;SDS011;36542;51.700;8.846;2024-03-08T05:56:34;59.67;;;30.57;;
50585;SDS011;36542;51.700;8.846;2024-03-08T05:59:00;57.10;;;30.10;;
50585;SDS011;36542;51.700;8.846;2024-03-08T06:01:27;59.73;;;30.27;;
50585;SDS011;36542;51.700;8.846;2024-03-08T06:03:53;51.97;;;28.47;;
50585;SDS011;36542;51.700;8.846;2024-03-08T06:06:22;60.47;;;30.50;;
50585;SDS011;36542;51.700;8.846;2024-03-08T06:08:49;51.67;;;30.27;;
50585;SDS011;36542;51.700;8.846;2024-03-08T06:11:16;56.30;;;29.43;;
50585;SDS011;36542;51.700;8.846;2024-03-08T06:13:43;56.50;;;30.07;;
50585;SDS011;36542;51.700;8.846;2024-03-08T06:16:09;55.90;;;30.43;;
50585;SDS011;36542;51.700;8.846;2024-03-08T06:18:35;55.83;;;30.63;;
50585;SDS011;36542;51.700;8.846;2024-03-08T06:21:04;52.77;;;28.13;;
50585;SDS011;36542;51.700;8.846;2024-03-08T06:23:33;51.33;;;28.73;;
50585;SDS011;36542;51.700;8.846;2024-03-08T06:26:02;49.60;;;28.30;;
50585;SDS011;36542;51.700;8.846;2024-03-08T06:28:28;54.13;;;27.80;;
50585;SDS011;36542;51.700;8.846;2024-03-08T06:30:54;50.33;;;28.50;;
50585;SDS011;36542;51.700;8.846;2024-03-08T06:33:19;48.33;;;28.47;;
50585;SDS011;36542;51.700;8.846;2024-03-08T06:35:45;48.23;;;27.30;;
50585;SDS011;36542;51.700;8.846;2024-03-08T06:38:11;56.67;;;30.83;;
50585;SDS011;36542;51.700;8.846;2024-03-08T06:40:36;52.70;;;29.70;;
50585;SDS011;36542;51.700;8.846;2024-03-08T06:43:02;48.73;;;28.40;;
50585;SDS011;36542;51.700;8.846;2024-03-08T06:45:31;44.83;;;26.13;;
50585;SDS011;36542;51.700;8.846;2024-03-08T06:47:57;48.20;;;28.93;;
50585;SDS011;36542;51.700;8.846;2024-03-08T06:50:22;47.30;;;26.80;;
50585;SDS011;36542;51.700;8.846;2024-03-08T06:52:48;55.20;;;28.67;;
50585;SDS011;36542;51.700;8.846;2024-03-08T06:55:18;48.63;;;28.07;;
50585;SDS011;36542;51.700;8.846;2024-03-08T06:57:44;47.63;;;27.47;;
50585;SDS011;36542;51.700;8.846;2024-03-08T07:00:10;44.73;;;24.53;;
50585;SDS011;36542;51.700;8.846;2024-03-08T07:02:43;41.97;;;26.30;;
50585;SDS011;36542;51.700;8.846;2024-03-08T07:05:11;47.90;;;26.90;;
50585;SDS011;36542;51.700;8.846;2024-03-08T07:07:37;39.23;;;24.17;;
50585;SDS011;36542;51.700;8.846;2024-03-08T07:10:02;47.60;;;25.67;;
50585;SDS011;36542;51.700;8.846;2024-03-08T07:12:29;40.27;;;24.70;;
50585;SDS011;36542;51.700;8.846;2024-03-08T07:14:55;45.00;;;24.63;;
50585;SDS011;36542;51.700;8.846;2024-03-08T07:17:20;38.37;;;23.50;;
50585;SDS011;36542;51.700;8.846;2024-03-08T07:19:46;40.93;;;25.20;;
50585;SDS011;36542;51.700;8.846;2024-03-08T07:22:12;42.97;;;25.50;;
50585;SDS011;36542;51.700;8.846;2024-03-08T07:24:37;37.33;;;23.57;;
50585;SDS011;36542;51.700;8.846;2024-03-08T07:27:19;37.97;;;24.07;;
50585;SDS011;36542;51.700;8.846;2024-03-08T07:29:45;40.27;;;24.07;;
50585;SDS011;36542;51.700;8.846;2024-03-08T07:32:11;39.00;;;24.63;;
50585;SDS011;36542;51.700;8.846;2024-03-08T07:34:50;36.93;;;22.37;;
50585;SDS011;36542;51.700;8.846;2024-03-08T07:37:17;38.93;;;24.63;;
50585;SDS011;36542;51.700;8.846;2024-03-08T07:39:44;39.20;;;24.90;;
50585;SDS011;36542;51.700;8.846;2024-03-08T07:42:09;36.90;;;24.30;;
50585;SDS011;36542;51.700;8.846;2024-03-08T07:44:37;38.07;;;24.43;;
50585;SDS011;36542;51.700;8.846;2024-03-08T07:47:03;40.17;;;25.10;;
50585;SDS011;36542;51.700;8.846;2024-03-08T07:49:29;37.93;;;24.13;;
50585;SDS011;36542;51.700;8.846;2024-03-08T07:51:55;37.63;;;24.70;;
50585;SDS011;36542;51.700;8.846;2024-03-08T07:54:21;37.10;;;23.43;;
50585;SDS011;36542;51.700;8.846;2024-03-08T07:56:47;41.77;;;23.87;;
50585;SDS011;36542;51.700;8.846;2024-03-08T07:59:12;35.67;;;23.43;;
50585;SDS011;36542;51.700;8.846;2024-03-08T08:01:38;39.50;;;24.03;;
50585;SDS011;36542;51.700;8.846;2024-03-08T08:04:04;38.10;;;24.10;;
50585;SDS011;36542;51.700;8.846;2024-03-08T08:06:30;35.73;;;22.53;;
50585;SDS011;36542;51.700;8.846;2024-03-08T08:08:58;37.20;;;23.20;;
50585;SDS011;36542;51.700;8.846;2024-03-08T08:11:27;36.57;;;22.83;;
50585;SDS011;36542;51.700;8.846;2024-03-08T08:13:53;39.27;;;23.73;;
50585;SDS011;36542;51.700;8.846;2024-03-08T08:16:23;38.63;;;23.77;;
50585;SDS011;36542;51.700;8.846;2024-03-08T08:18:49;36.73;;;23.93;;
50585;SDS011;36542;51.700;8.846;2024-03-08T08:21:15;34.70;;;22.93;;
50585;SDS011;36542;51.700;8.846;2024-03-08T08:23:43;33.03;;;22.00;;
50585;SDS011;36542;51.700;8.846;2024-03-08T08:26:09;33.93;;;22.10;;
50585;SDS011;36542;51.700;8.846;2024-03-08T08:28:36;38.43;;;24.70;;
50585;SDS011;36542;51.700;8.846;2024-03-08T08:31:02;35.00;;;23.03;;
50585;SDS011;36542;51.700;8.846;2024-03-08T08:33:29;31.93;;;23.53;;
50585;SDS011;36542;51.700;8.846;2024-03-08T08:35:54;32.57;;;21.93;;
50585;SDS011;36542;51.700;8.846;2024-03-08T08:38:21;32.27;;;22.63;;
50585;SDS011;36542;51.700;8.846;2024-03-08T08:40:47;34.87;;;23.13;;
50585;SDS011;36542;51.700;8.846;2024-03-08T08:43:13;34.87;;;22.17;;
50585;SDS011;36542;51.700;8.846;2024-03-08T08:45:39;32.20;;;20.57;;
50585;SDS011;36542;51.700;8.846;2024-03-08T08:48:05;32.70;;;21.67;;
50585;SDS011;36542;51.700;8.846;2024-03-08T08:50:31;37.00;;;22.50;;
50585;SDS011;36542;51.700;8.846;2024-03-08T08:52:57;30.63;;;21.83;;
50585;SDS011;36542;51.700;8.846;2024-03-08T08:55:23;32.23;;;21.87;;
50585;SDS011;36542;51.700;8.846;2024-03-08T08:57:52;32.57;;;22.00;;
50585;SDS011;36542;51.700;8.846;2024-03-08T09:00:19;31.93;;;23.20;;
50585;SDS011;36542;51.700;8.846;2024-03-08T09:02:45;32.97;;;20.90;;
50585;SDS011;36542;51.700;8.846;2024-03-08T09:05:13;32.03;;;20.53;;
50585;SDS011;36542;51.700;8.846;2024-03-08T09:07:42;33.63;;;22.10;;
50585;SDS011;36542;51.700;8.846;2024-03-08T09:10:09;33.03;;;21.80;;
50585;SDS011;36542;51.700;8.846;2024-03-08T09:12:37;32.40;;;21.90;;
50585;SDS011;36542;51.700;8.846;2024-03-08T09:15:06;32.63;;;20.63;;
50585;SDS011;36542;51.700;8.846;2024-03-08T09:17:33;32.77;;;21.93;;
50585;SDS011;36542;51.700;8.846;2024-03-08T09:19:59;31.27;;;21.07;;
50585;SDS011;36542;51.700;8.846;2024-03-08T09:22:25;31.13;;;22.17;;
50585;SDS011;36542;51.700;8.846;2024-03-08T09:24:51;32.27;;;20.33;;
50585;SDS011;36542;51.700;8.846;2024-03-08T09:27:16;31.87;;;21.37;;
50585;SDS011;36542;51.700;8.846;2024-03-08T09:29:43;31.07;;;21.40;;
50585;SDS011;36542;51.700;8.846;2024-03-08T09:32:09;31.07;;;20.77;;
50585;SDS011;36542;51.700;8.846;2024-03-08T09:34:36;30.57;;;20.47;;
50585;SDS011;36542;51.700;8.846;2024-03-08T09:37:02;31.50;;;21.83;;
50585;SDS011;36542;51.700;8.846;2024-03-08T09:39:29;29.97;;;20.47;;
50585;SDS011;36542;51.700;8.846;2024-03-08T09:41:55;30.07;;;20.77;;
50585;SDS011;36542;51.700;8.846;2024-03-08T09:44:21;29.97;;;20.10;;
50585;SDS011;36542;51.700;8.846;2024-03-08T09:46:48;30.63;;;21.63;;
50585;SDS011;36542;51.700;8.846;2024-03-08T09:49:18;32.50;;;21.57;;
50585;SDS011;36542;51.700;8.846;2024-03-08T09:51:43;32.00;;;21.33;;
50585;SDS011;36542;51.700;8.846;2024-03-08T09:54:09;32.20;;;20.77;;
50585;SDS011;36542;51.700;8.846;2024-03-08T09:56:36;31.07;;;20.57;;
50585;SDS011;36542;51.700;8.846;2024-03-08T09:59:05;30.80;;;20.53;;
50585;SDS011;36542;51.700;8.846;2024-03-08T10:01:51;30.87;;;21.23;;
50585;SDS011;36542;51.700;8.846;2024-03-08T10:04:24;30.73;;;21.77;;
50585;SDS011;36542;51.700;8.846;2024-03-08T10:06:51;30.57;;;22.17;;
50585;SDS011;36542;51.700;8.846;2024-03-08T10:09:17;32.30;;;22.17;;
50585;SDS011;36542;51.700;8.846;2024-03-08T10:11:43;29.30;;;21.77;;
50585;SDS011;36542;51.700;8.846;2024-03-08T10:14:10;30.97;;;20.43;;
50585;SDS011;36542;51.700;8.846;2024-03-08T10:16:35;29.37;;;21.40;;
50585;SDS011;36542;51.700;8.846;2024-03-08T10:19:01;28.33;;;20.10;;
50585;SDS011;36542;51.700;8.846;2024-03-08T10:21:28;29.57;;;19.70;;
50585;SDS011;36542;51.700;8.846;2024-03-08T10:23:53;27.27;;;19.57;;
50585;SDS011;36542;51.700;8.846;2024-03-08T10:26:21;28.73;;;21.03;;
50585;SDS011;36542;51.700;8.846;2024-03-08T10:28:47;28.10;;;20.50;;
50585;SDS011;36542;51.700;8.846;2024-03-08T10:31:14;27.17;;;18.87;;
50585;SDS011;36542;51.700;8.846;2024-03-08T10:33:41;27.73;;;20.20;;
50585;SDS011;36542;51.700;8.846;2024-03-08T10:36:07;26.67;;;18.17;;
50585;SDS011;36542;51.700;8.846;2024-03-08T10:38:36;29.77;;;19.30;;
50585;SDS011;36542;51.700;8.846;2024-03-08T10:41:05;29.27;;;18.53;;
50585;SDS011;36542;51.700;8.846;2024-03-08T10:43:32;27.17;;;18.53;;
50585;SDS011;36542;51.700;8.846;2024-03-08T10:48:47;25.90;;;19.17;;
50585;SDS011;36542;51.700;8.846;2024-03-08T10:51:15;27.60;;;18.97;;
50585;SDS011;36542;51.700;8.846;2024-03-08T10:53:41;26.53;;;19.63;;
50585;SDS011;36542;51.700;8.846;2024-03-08T10:56:09;25.17;;;18.10;;
50585;SDS011;36542;51.700;8.846;2024-03-08T10:58:35;29.50;;;19.10;;
50585;SDS011;36542;51.700;8.846;2024-03-08T11:01:02;25.57;;;18.03;;
50585;SDS011;36542;51.700;8.846;2024-03-08T11:06:48;27.90;;;18.37;;
50585;SDS011;36542;51.700;8.846;2024-03-08T11:09:00;26.80;;;18.67;;
50585;SDS011;36542;51.700;8.846;2024-03-08T11:11:33;27.57;;;18.87;;
50585;SDS011;36542;51.700;8.846;2024-03-08T11:14:02;28.33;;;18.70;;
50585;SDS011;36542;51.700;8.846;2024-03-08T11:18:59;24.77;;;16.93;;
50585;SDS011;36542;51.700;8.846;2024-03-08T11:21:35;29.53;;;20.13;;
50585;SDS011;36542;51.700;8.846;2024-03-08T11:24:08;29.53;;;19.07;;
50585;SDS011;36542;51.700;8.846;2024-03-08T11:26:39;27.70;;;18.50;;
50585;SDS011;36542;51.700;8.846;2024-03-08T11:32:07;28.43;;;19.30;;
50585;SDS011;36542;51.700;8.846;2024-03-08T11:34:35;27.87;;;18.03;;
50585;SDS011;36542;51.700;8.846;2024-03-08T11:37:04;30.10;;;20.23;;
50585;SDS011;36542;51.700;8.846;2024-03-08T11:39:34;31.37;;;21.57;;
50585;SDS011;36542;51.700;8.846;2024-03-08T11:42:02;29.53;;;20.40;;
50585;SDS011;36542;51.700;8.846;2024-03-08T11:44:27;34.30;;;21.60;;
50585;SDS011;36542;51.700;8.846;2024-03-08T11:46:56;32.23;;;20.53;;
50585;SDS011;36542;51.700;8.846;2024-03-08T11:49:22;29.03;;;20.27;;
50585;SDS011;36542;51.700;8.846;2024-03-08T11:51:51;30.97;;;20.33;;
50585;SDS011;36542;51.700;8.846;2024-03-08T11:54:18;31.77;;;18.47;;
50585;SDS011;36542;51.700;8.846;2024-03-08T11:56:44;32.00;;;19.63;;
50585;SDS011;36542;51.700;8.846;2024-03-08T11:59:12;34.67;;;21.57;;
50585;SDS011;36542;51.700;8.846;2024-03-08T12:01:39;31.17;;;20.37;;
50585;SDS011;36542;51.700;8.846;2024-03-08T12:04:05;29.87;;;19.97;;
50585;SDS011;36542;51.700;8.846;2024-03-08T12:06:40;33.87;;;20.27;;
50585;SDS011;36542;51.700;8.846;2024-03-08T12:09:12;30.63;;;18.73;;
50585;SDS011;36542;51.700;8.846;2024-03-08T12:11:38;31.50;;;19.77;;
50585;SDS011;36542;51.700;8.846;2024-03-08T12:14:04;28.40;;;19.33;;
50585;SDS011;36542;51.700;8.846;2024-03-08T12:16:31;29.37;;;17.77;;
50585;SDS011;36542;51.700;8.846;2024-03-08T12:18:57;32.43;;;19.73;;
50585;SDS011;36542;51.700;8.846;2024-03-08T12:21:23;31.53;;;19.23;;
50585;SDS011;36542;51.700;8.846;2024-03-08T12:24:07;26.93;;;18.97;;
50585;SDS011;36542;51.700;8.846;2024-03-08T12:26:35;31.77;;;19.80;;
50585;SDS011;36542;51.700;8.846;2024-03-08T12:29:14;29.30;;;18.33;;
50585;SDS011;36542;51.700;8.846;2024-03-08T12:31:41;31.43;;;19.27;;
50585;SDS011;36542;51.700;8.846;2024-03-08T12:34:07;32.10;;;19.40;;
50585;SDS011;36542;51.700;8.846;2024-03-08T12:36:35;30.57;;;18.87;;
50585;SDS011;36542;51.700;8.846;2024-03-08T12:39:01;29.77;;;17.67;;
50585;SDS011;36542;51.700;8.846;2024-03-08T12:41:28;31.40;;;20.67;;
50585;SDS011;36542;51.700;8.846;2024-03-08T12:43:54;30.97;;;20.07;;
50585;SDS011;36542;51.700;8.846;2024-03-08T12:46:21;28.77;;;19.67;;
50585;SDS011;36542;51.700;8.846;2024-03-08T12:48:51;28.43;;;19.57;;
50585;SDS011;36542;51.700;8.846;2024-03-08T12:51:19;29.07;;;18.53;;
50585;SDS011;36542;51.700;8.846;2024-03-08T12:53:46;33.23;;;19.57;;
50585;SDS011;36542;51.700;8.846;2024-03-08T12:56:34;33.53;;;20.20;;
50585;SDS011;36542;51.700;8.846;2024-03-08T12:58:59;28.87;;;18.77;;
50585;SDS011;36542;51.700;8.846;2024-03-08T13:01:25;32.43;;;19.47;;
50585;SDS011;36542;51.700;8.846;2024-03-08T13:03:52;29.73;;;19.97;;
50585;SDS011;36542;51.700;8.846;2024-03-08T13:06:18;33.37;;;19.40;;
50585;SDS011;36542;51.700;8.846;2024-03-08T13:08:49;34.67;;;21.47;;
50585;SDS011;36542;51.700;8.846;2024-03-08T13:11:17;31.30;;;20.30;;
50585;SDS011;36542;51.700;8.846;2024-03-08T13:13:44;34.63;;;18.63;;
50585;SDS011;36542;51.700;8.846;2024-03-08T13:16:10;32.97;;;21.30;;
50585;SDS011;36542;51.700;8.846;2024-03-08T13:18:39;33.57;;;20.10;;
50585;SDS011;36542;51.700;8.846;2024-03-08T13:21:07;29.60;;;19.03;;
50585;SDS011;36542;51.700;8.846;2024-03-08T13:23:34;29.17;;;18.87;;
50585;SDS011;36542;51.700;8.846;2024-03-08T13:26:11;29.47;;;17.97;;
50585;SDS011;36542;51.700;8.846;2024-03-08T13:28:50;26.57;;;17.60;;
50585;SDS011;36542;51.700;8.846;2024-03-08T13:31:21;31.60;;;18.83;;
50585;SDS011;36542;51.700;8.846;2024-03-08T13:33:47;29.87;;;17.93;;
50585;SDS011;36542;51.700;8.846;2024-03-08T13:36:13;27.30;;;16.87;;
50585;SDS011;36542;51.700;8.846;2024-03-08T13:38:46;29.47;;;16.97;;
50585;SDS011;36542;51.700;8.846;2024-03-08T13:41:12;28.87;;;17.80;;
50585;SDS011;36542;51.700;8.846;2024-03-08T13:43:42;28.27;;;17.83;;
50585;SDS011;36542;51.700;8.846;2024-03-08T13:46:10;28.40;;;17.47;;
50585;SDS011;36542;51.700;8.846;2024-03-08T13:48:36;28.47;;;17.70;;
50585;SDS011;36542;51.700;8.846;2024-03-08T13:51:06;27.37;;;17.67;;
50585;SDS011;36542;51.700;8.846;2024-03-08T13:53:32;23.17;;;15.50;;
50585;SDS011;36542;51.700;8.846;2024-03-08T13:56:00;29.30;;;17.47;;
50585;SDS011;36542;51.700;8.846;2024-03-08T13:58:28;27.30;;;16.93;;
50585;SDS011;36542;51.700;8.846;2024-03-08T14:00:54;28.53;;;17.93;;
50585;SDS011;36542;51.700;8.846;2024-03-08T14:03:20;28.60;;;18.20;;
50585;SDS011;36542;51.700;8.846;2024-03-08T14:05:46;26.00;;;17.03;;
50585;SDS011;36542;51.700;8.846;2024-03-08T14:08:12;26.17;;;16.97;;
50585;SDS011;36542;51.700;8.846;2024-03-08T14:10:38;25.47;;;17.23;;
50585;SDS011;36542;51.700;8.846;2024-03-08T14:13:04;29.00;;;17.67;;
50585;SDS011;36542;51.700;8.846;2024-03-08T14:15:31;27.33;;;18.10;;
50585;SDS011;36542;51.700;8.846;2024-03-08T14:17:58;30.23;;;17.60;;
50585;SDS011;36542;51.700;8.846;2024-03-08T14:20:24;27.57;;;17.37;;
50585;SDS011;36542;51.700;8.846;2024-03-08T14:22:54;29.77;;;17.53;;
50585;SDS011;36542;51.700;8.846;2024-03-08T14:25:20;28.43;;;18.63;;
50585;SDS011;36542;51.700;8.846;2024-03-08T14:27:48;31.73;;;19.40;;
50585;SDS011;36542;51.700;8.846;2024-03-08T14:30:15;31.00;;;19.13;;
50585;SDS011;36542;51.700;8.846;2024-03-08T14:32:57;30.40;;;20.30;;